Time;durP1;ratioP1;P1;durP2;ratioP2;P2;SDS_P1;SDS_P2;PMS_P1;PMS_P2;Temp;Humidity;BMP_temperature;BMP_pressure;BME280_temperature;BME280_humidity;BME280_pressure;Samples;Min_cycle;Max_cycle;Signal;HPM_P1;HPM_P2
2022/12/20 00:00:26;;;;;;;56.25;19.77;;;6.10;98.70;;;;;;5107530;28;20042;-61
2022/12/20 00:02:52;;;;;;;66.80;18.17;;;6.10;98.70;;;;;;5108080;28;20077;-60
2022/12/20 00:05:17;;;;;;;58.85;19.25;;;6.20;98.70;;;;;;5126391;28;20016;-60
2022/12/20 00:07:43;;;;;;;71.03;19.73;;;6.10;98.70;;;;;;5125823;28;20024;-60
2022/12/20 00:10:09;;;;;;;62.90;19.10;;;6.10;98.60;;;;;;5125817;28;20377;-61
2022/12/20 00:12:34;;;;;;;59.70;18.80;;;6.20;98.70;;;;;;5107242;28;20024;-60
2022/12/20 00:15:00;;;;;;;50.47;19.67;;;6.10;98.70;;;;;;5090242;28;20057;-60
2022/12/20 00:17:25;;;;;;;65.97;20.25;;;6.10;98.70;;;;;;5125586;28;20052;-61
2022/12/20 00:19:51;;;;;;;60.35;19.88;;;6.10;98.60;;;;;;5107342;28;20028;-60
2022/12/20 00:22:16;;;;;;;44.05;18.20;;;6.10;98.70;;;;;;5125654;28;20027;-59
2022/12/20 00:24:42;;;;;;;51.72;17.70;;;6.10;98.70;;;;;;5090115;28;20046;-60
2022/12/20 00:27:07;;;;;;;56.63;18.40;;;6.10;98.70;;;;;;5106968;28;20068;-60
2022/12/20 00:29:33;;;;;;;50.42;18.55;;;6.10;98.70;;;;;;5107075;28;20044;-60
2022/12/20 00:31:59;;;;;;;63.55;19.38;;;6.00;98.70;;;;;;5107127;28;20027;-60
2022/12/20 00:34:25;;;;;;;56.08;19.88;;;6.00;98.70;;;;;;5125643;28;20095;-60
2022/12/20 00:36:50;;;;;;;56.00;20.05;;;6.00;98.70;;;;;;5107073;28;20474;-60
2022/12/20 00:39:16;;;;;;;56.15;19.95;;;6.00;98.70;;;;;;5106988;28;20426;-60
2022/12/20 00:41:41;;;;;;;49.88;19.05;;;6.00;98.70;;;;;;5125285;28;20072;-60
2022/12/20 00:44:07;;;;;;;56.75;18.88;;;6.00;98.70;;;;;;5106782;28;20036;-61
2022/12/20 00:46:33;;;;;;;57.83;19.67;;;6.00;98.70;;;;;;5106894;28;20024;-60
2022/12/20 00:48:59;;;;;;;51.47;18.45;;;5.90;98.80;;;;;;5125053;28;20087;-61
2022/12/20 00:51:26;;;;;;;60.10;19.95;;;5.90;98.80;;;;;;5106729;28;20027;-60
2022/12/20 00:53:52;;;;;;;51.53;19.75;;;5.90;98.80;;;;;;5089664;28;20057;-60
2022/12/20 00:56:17;;;;;;;56.80;19.98;;;6.00;98.80;;;;;;5106778;28;20463;-60
2022/12/20 00:58:43;;;;;;;54.35;20.40;;;5.90;98.80;;;;;;5106886;28;20114;-60
2022/12/20 01:01:16;;;;;;;48.40;18.83;;;5.90;98.80;;;;;;5106842;28;20028;-60
2022/12/20 01:03:42;;;;;;;60.40;20.75;;;5.90;99.10;;;;;;5106856;28;20031;-60
2022/12/20 01:06:08;;;;;;;46.42;19.05;;;5.90;98.80;;;;;;5125219;28;20073;-60
2022/12/20 01:08:34;;;;;;;60.72;20.83;;;5.90;98.80;;;;;;5106788;28;20134;-60
2022/12/20 01:11:04;;;;;;;53.40;20.10;;;5.90;98.80;;;;;;5106619;28;20134;-60
2022/12/20 01:13:30;;;;;;;47.70;19.38;;;5.90;98.80;;;;;;5125133;28;20026;-60
2022/12/20 01:15:56;;;;;;;53.83;19.77;;;5.90;98.80;;;;;;5106564;28;20059;-60
2022/12/20 01:18:21;;;;;;;53.67;21.30;;;5.90;98.80;;;;;;5106660;28;20027;-60
2022/12/20 01:20:47;;;;;;;59.38;20.65;;;5.90;99.10;;;;;;5106541;28;20365;-60
2022/12/20 01:23:12;;;;;;;53.88;20.52;;;5.90;98.80;;;;;;5106769;28;20027;-60
2022/12/20 01:25:38;;;;;;;48.60;19.52;;;5.90;98.90;;;;;;5089358;28;20398;-59
2022/12/20 01:28:03;;;;;;;61.03;19.88;;;5.80;98.80;;;;;;5125235;28;20082;-60
2022/12/20 01:30:29;;;;;;;57.83;21.40;;;5.80;98.80;;;;;;5107200;28;20023;-60
2022/12/20 01:32:55;;;;;;;51.83;20.85;;;5.80;98.90;;;;;;5106642;28;20104;-60
2022/12/20 01:35:20;;;;;;;45.35;20.60;;;5.80;98.80;;;;;;5107440;28;20020;-60
2022/12/20 01:37:46;;;;;;;49.60;20.58;;;5.80;98.80;;;;;;5107121;28;20091;-60
2022/12/20 01:40:11;;;;;;;55.10;21.58;;;5.80;98.80;;;;;;5109638;28;20023;-60
2022/12/20 01:42:37;;;;;;;56.92;21.10;;;5.80;98.80;;;;;;5129431;28;20038;-60
2022/12/20 01:45:03;;;;;;;52.53;20.55;;;5.70;98.80;;;;;;5128421;28;20084;-60
2022/12/20 01:47:29;;;;;;;51.55;21.20;;;5.70;98.90;;;;;;5110022;28;20028;-60
2022/12/20 01:49:55;;;;;;;42.88;19.83;;;5.70;98.90;;;;;;5110262;28;20047;-60
2022/12/20 01:52:25;;;;;;;47.45;20.70;;;5.70;98.90;;;;;;5128122;28;20480;-60
2022/12/20 01:54:54;;;;;;;44.88;20.85;;;5.70;98.90;;;;;;5109747;28;20020;-60
2022/12/20 01:57:56;;;;;;;46.05;20.80;;;5.70;98.90;;;;;;5109948;28;20137;-60
2022/12/20 02:00:22;;;;;;;48.17;21.45;;;5.70;98.90;;;;;;5104936;28;20077;-59
2022/12/20 02:02:48;;;;;;;45.63;21.00;;;5.70;98.80;;;;;;5128072;28;20031;-60
2022/12/20 02:05:14;;;;;;;47.20;21.33;;;5.70;98.90;;;;;;5109519;28;20122;-59
2022/12/20 02:07:40;;;;;;;46.40;20.83;;;5.70;98.90;;;;;;5109828;28;20035;-59
2022/12/20 02:10:07;;;;;;;48.90;20.65;;;5.70;98.90;;;;;;5109437;28;20063;-59
2022/12/20 02:12:40;;;;;;;38.15;21.02;;;5.60;98.80;;;;;;5109428;28;20475;-60
2022/12/20 02:15:46;;;;;;;43.15;21.70;;;5.60;98.90;;;;;;5109415;28;20031;-59
2022/12/20 02:18:36;;;;;;;47.17;22.75;;;5.70;98.90;;;;;;5109402;28;20088;-60
2022/12/20 02:21:17;;;;;;;42.08;20.95;;;5.70;98.80;;;;;;5111987;28;20028;-59
2022/12/20 02:24:35;;;;;;;46.60;20.83;;;5.70;98.90;;;;;;5109476;28;20027;-60
2022/12/20 02:27:30;;;;;;;40.08;20.30;;;5.60;98.80;;;;;;5064905;28;20044;-59
2022/12/20 02:30:02;;;;;;;39.75;20.85;;;5.60;98.80;;;;;;5111772;28;20098;-60
2022/12/20 02:32:32;;;;;;;49.95;23.27;;;5.60;98.80;;;;;;5127716;28;20066;-59
2022/12/20 02:34:58;;;;;;;49.85;21.92;;;5.60;98.70;;;;;;5109529;28;20397;-59
2022/12/20 02:37:23;;;;;;;50.17;21.27;;;5.60;98.80;;;;;;5109069;28;20035;-60
2022/12/20 02:39:49;;;;;;;48.15;21.30;;;5.60;98.80;;;;;;5092023;28;20034;-59
2022/12/20 02:42:16;;;;;;;45.67;21.95;;;5.60;98.80;;;;;;5108932;28;20053;-59
2022/12/20 02:47:35;;;;;;;41.03;21.08;;;5.60;98.80;;;;;;5111758;28;20092;-59
2022/12/20 02:50:01;;;;;;;37.15;19.38;;;5.60;98.80;;;;;;5108867;28;20409;-59
2022/12/20 02:52:29;;;;;;;37.80;19.83;;;5.60;98.80;;;;;;5090724;28;20031;-60
2022/12/20 02:54:55;;;;;;;37.40;19.67;;;5.60;98.80;;;;;;5091816;28;20110;-60
2022/12/20 02:57:26;;;;;;;39.90;20.63;;;5.60;98.80;;;;;;5127192;28;20031;-59
2022/12/20 03:00:00;;;;;;;43.50;19.55;;;5.60;98.80;;;;;;5109176;28;20069;-59
2022/12/20 03:02:25;;;;;;;38.90;18.25;;;5.60;98.90;;;;;;5108562;28;20055;-59
2022/12/20 03:04:51;;;;;;;34.38;17.27;;;5.50;99.00;;;;;;5108331;28;20130;-59
2022/12/20 03:07:17;;;;;;;34.05;18.08;;;5.50;99.20;;;;;;5108664;28;20031;-59
2022/12/20 03:09:43;;;;;;;33.72;16.88;;;5.60;99.40;;;;;;5108539;28;20028;-59
2022/12/20 03:12:10;;;;;;;43.38;19.83;;;5.50;99.40;;;;;;5108303;28;20034;-59
2022/12/20 03:14:39;;;;;;;34.42;18.08;;;5.60;99.50;;;;;;5108485;28;20038;-59
2022/12/20 03:17:05;;;;;;;39.90;18.58;;;5.50;99.50;;;;;;5126685;28;20032;-59
2022/12/20 03:19:30;;;;;;;37.85;17.83;;;5.50;99.50;;;;;;5091083;28;20389;-59
2022/12/20 03:21:56;;;;;;;36.58;16.77;;;5.50;99.60;;;;;;5108107;28;20042;-60
2022/12/20 03:24:21;;;;;;;40.95;18.17;;;5.50;99.60;;;;;;5126370;28;20035;-59
2022/12/20 03:26:47;;;;;;;33.65;16.00;;;5.50;99.60;;;;;;5107949;28;20106;-59
2022/12/20 03:29:12;;;;;;;32.70;17.23;;;5.50;99.60;;;;;;5107993;28;20085;-59
2022/12/20 03:31:38;;;;;;;32.28;16.30;;;5.50;99.50;;;;;;5107836;28;20118;-59
2022/12/20 03:34:04;;;;;;;26.40;15.80;;;5.50;99.50;;;;;;5107929;28;20032;-59
2022/12/20 03:36:29;;;;;;;36.33;16.83;;;5.50;99.60;;;;;;5107785;28;20024;-59
2022/12/20 03:38:55;;;;;;;38.90;18.13;;;5.50;99.60;;;;;;5107795;28;20445;-59
2022/12/20 03:41:20;;;;;;;26.45;17.15;;;5.50;99.60;;;;;;5126111;28;20095;-59
2022/12/20 03:43:47;;;;;;;36.70;17.08;;;5.50;99.60;;;;;;5107637;28;20452;-60
2022/12/20 03:46:12;;;;;;;32.60;17.02;;;5.50;99.60;;;;;;5107479;28;20038;-59
2022/12/20 03:48:38;;;;;;;34.10;16.88;;;5.50;99.60;;;;;;5107549;28;20027;-60
2022/12/20 03:51:04;;;;;;;39.53;18.02;;;5.50;99.50;;;;;;5107405;28;20488;-59
2022/12/20 03:53:29;;;;;;;32.10;17.55;;;5.50;99.50;;;;;;5125924;28;20049;-59
2022/12/20 03:55:55;;;;;;;29.42;17.40;;;5.50;99.50;;;;;;5108027;28;20114;-59
2022/12/20 03:58:20;;;;;;;31.65;18.05;;;5.50;99.40;;;;;;5107765;28;20027;-59
2022/12/20 04:00:46;;;;;;;27.40;16.50;;;5.50;99.50;;;;;;5107489;28;20039;-59
2022/12/20 04:03:12;;;;;;;32.45;17.67;;;5.50;99.50;;;;;;5090037;28;20042;-59
2022/12/20 04:05:37;;;;;;;32.97;16.40;;;5.50;99.40;;;;;;5107183;28;20072;-59
2022/12/20 04:08:03;;;;;;;33.10;16.75;;;5.40;99.40;;;;;;5107457;28;20080;-59
2022/12/20 04:10:28;;;;;;;30.48;16.80;;;5.50;99.40;;;;;;5090224;28;20126;-59
2022/12/20 04:12:54;;;;;;;26.98;17.15;;;5.40;99.30;;;;;;5125683;28;20024;-59
2022/12/20 04:15:19;;;;;;;31.10;16.90;;;5.50;99.30;;;;;;5125648;28;20079;-59
2022/12/20 04:17:45;;;;;;;30.98;16.55;;;5.50;99.30;;;;;;5107445;28;20054;-59
2022/12/20 04:20:19;;;;;;;27.98;15.57;;;5.40;99.20;;;;;;5107243;28;20036;-59
2022/12/20 04:22:46;;;;;;;32.80;15.80;;;5.50;99.20;;;;;;5125393;28;20088;-59
2022/12/20 04:25:11;;;;;;;35.40;17.42;;;5.50;99.10;;;;;;5107102;28;20023;-59
2022/12/20 04:27:37;;;;;;;27.38;15.10;;;5.40;99.10;;;;;;5107311;28;20032;-59
2022/12/20 04:30:03;;;;;;;30.70;16.67;;;5.40;99.10;;;;;;5125006;28;20111;-59
2022/12/20 04:32:28;;;;;;;25.73;15.48;;;5.40;99.10;;;;;;5125632;28;20043;-59
2022/12/20 04:34:54;;;;;;;25.55;14.65;;;5.40;99.10;;;;;;5125348;28;20039;-59
2022/12/20 04:37:19;;;;;;;25.55;14.77;;;5.40;99.10;;;;;;5125269;28;20020;-59
2022/12/20 04:39:45;;;;;;;24.85;15.55;;;5.40;99.10;;;;;;5107091;28;20028;-60
2022/12/20 04:42:10;;;;;;;32.67;15.60;;;5.40;99.10;;;;;;5125403;28;20028;-59
2022/12/20 04:44:36;;;;;;;28.33;16.30;;;5.40;99.40;;;;;;5107107;28;20047;-59
2022/12/20 04:47:02;;;;;;;26.65;16.20;;;5.40;99.10;;;;;;5125239;28;20449;-59
2022/12/20 04:49:27;;;;;;;23.05;16.05;;;5.40;99.30;;;;;;5106877;28;20073;-59
2022/12/20 04:51:53;;;;;;;26.20;14.98;;;5.40;99.40;;;;;;5125045;28;20509;-59
2022/12/20 04:54:18;;;;;;;23.60;15.15;;;5.40;99.40;;;;;;5125091;28;20075;-59
2022/12/20 04:56:44;;;;;;;25.85;15.27;;;5.40;99.40;;;;;;5106650;28;20042;-59
2022/12/20 04:59:11;;;;;;;27.55;14.82;;;5.30;99.30;;;;;;5106876;28;20068;-59
2022/12/20 05:01:36;;;;;;;25.55;14.95;;;5.40;99.30;;;;;;5106639;28;20047;-59
2022/12/20 05:04:02;;;;;;;30.08;16.65;;;5.40;99.30;;;;;;5089788;28;20147;-59
2022/12/20 05:06:28;;;;;;;27.17;14.45;;;5.40;99.30;;;;;;5106569;28;20170;-59
2022/12/20 05:08:54;;;;;;;32.45;14.23;;;5.40;99.40;;;;;;5089771;28;20019;-59
2022/12/20 05:11:19;;;;;;;24.67;14.18;;;5.40;99.30;;;;;;5106686;28;20081;-59
2022/12/20 05:13:45;;;;;;;25.08;14.23;;;5.40;99.30;;;;;;5106712;28;20024;-59
2022/12/20 05:16:10;;;;;;;25.85;15.07;;;5.40;99.30;;;;;;5109826;28;20034;-59
2022/12/20 05:18:36;;;;;;;28.65;14.35;;;5.40;99.30;;;;;;5110647;28;20473;-59
2022/12/20 05:26:33;;;;;;;24.23;14.18;;;5.40;99.40;;;;;;5113134;28;20515;-59
2022/12/20 05:28:58;;;;;;;23.90;13.70;;;5.40;99.40;;;;;;5110222;28;20034;-59
2022/12/20 05:31:24;;;;;;;22.70;13.55;;;5.40;99.40;;;;;;5128518;28;20039;-59
2022/12/20 05:33:49;;;;;;;24.15;13.82;;;5.40;99.40;;;;;;5128581;28;20028;-59
2022/12/20 05:36:15;;;;;;;25.45;14.30;;;5.40;99.50;;;;;;5110182;28;20052;-59
2022/12/20 05:38:40;;;;;;;22.48;13.82;;;5.40;99.60;;;;;;5110083;28;20026;-59
2022/12/20 05:41:06;;;;;;;25.33;14.48;;;5.40;99.60;;;;;;5109865;28;20039;-59
2022/12/20 05:43:31;;;;;;;24.63;14.27;;;5.40;99.60;;;;;;5128471;28;20511;-59
2022/12/20 05:45:57;;;;;;;21.33;12.88;;;5.40;99.50;;;;;;5128454;28;20032;-59
2022/12/20 05:48:22;;;;;;;21.40;13.38;;;5.40;99.40;;;;;;5109856;28;20047;-59
2022/12/20 05:50:48;;;;;;;20.85;13.48;;;5.40;99.40;;;;;;5128200;28;20096;-59
2022/12/20 05:53:14;;;;;;;27.88;13.63;;;5.40;99.40;;;;;;5109769;28;20091;-59
2022/12/20 05:55:44;;;;;;;22.92;13.90;;;5.40;99.40;;;;;;5092701;28;20027;-59
2022/12/20 05:58:12;;;;;;;22.17;12.98;;;5.30;99.40;;;;;;5109877;28;20514;-59
2022/12/20 06:00:40;;;;;;;22.90;13.60;;;5.40;99.40;;;;;;5109902;28;20024;-59
2022/12/20 06:03:08;;;;;;;23.20;13.60;;;5.40;99.40;;;;;;5110119;28;20058;-59
2022/12/20 06:05:34;;;;;;;22.42;13.48;;;5.40;99.50;;;;;;5109926;28;20059;-59
2022/12/20 06:07:59;;;;;;;20.85;13.25;;;5.40;99.40;;;;;;5109480;28;20020;-59
2022/12/20 06:10:25;;;;;;;21.83;13.25;;;5.40;99.40;;;;;;5128028;28;20047;-59
2022/12/20 06:12:51;;;;;;;23.30;13.57;;;5.30;99.40;;;;;;5109431;28;20454;-59
2022/12/20 06:15:16;;;;;;;22.15;13.30;;;5.30;99.40;;;;;;5109389;28;20449;-58
2022/12/20 06:17:42;;;;;;;24.63;13.82;;;5.40;99.40;;;;;;5127741;28;20035;-59
2022/12/20 06:20:08;;;;;;;27.20;12.77;;;5.30;99.30;;;;;;5092257;28;20068;-59
2022/12/20 06:22:33;;;;;;;25.63;13.95;;;5.40;99.30;;;;;;5109050;28;20572;-59
2022/12/20 06:24:59;;;;;;;24.58;13.98;;;5.30;99.30;;;;;;5109094;28;20392;-59
2022/12/20 06:27:24;;;;;;;21.63;13.27;;;5.30;99.30;;;;;;5108717;28;20103;-59
2022/12/20 06:29:53;;;;;;;22.02;14.13;;;5.30;99.30;;;;;;5127431;28;20027;-58
2022/12/20 06:32:18;;;;;;;22.90;14.38;;;5.30;99.30;;;;;;5127428;28;20048;-59
2022/12/20 06:34:44;;;;;;;23.85;12.98;;;5.30;99.30;;;;;;5109080;28;20031;-59
2022/12/20 06:37:09;;;;;;;22.20;12.95;;;5.30;99.30;;;;;;5108841;28;20040;-58
2022/12/20 06:39:35;;;;;;;28.02;13.60;;;5.30;99.30;;;;;;5108960;28;20016;-59
2022/12/20 06:42:00;;;;;;;20.15;13.38;;;5.30;99.20;;;;;;5108812;28;20563;-59
2022/12/20 06:44:26;;;;;;;19.00;12.48;;;5.30;99.20;;;;;;5108947;28;20338;-59
2022/12/20 06:46:52;;;;;;;20.85;13.20;;;5.30;99.10;;;;;;5127297;28;20481;-59
2022/12/20 06:49:17;;;;;;;21.48;12.52;;;5.30;99.10;;;;;;5108794;28;20100;-59
2022/12/20 06:51:43;;;;;;;21.63;13.10;;;5.30;99.20;;;;;;5108583;28;20046;-59
2022/12/20 06:54:08;;;;;;;23.13;12.70;;;5.30;99.10;;;;;;5126681;28;20027;-59
2022/12/20 06:56:34;;;;;;;21.15;12.65;;;5.30;99.20;;;;;;5126799;28;20095;-59
2022/12/20 06:58:59;;;;;;;23.38;13.05;;;5.20;99.10;;;;;;5108432;28;20035;-59
2022/12/20 07:01:25;;;;;;;19.02;12.48;;;5.30;99.10;;;;;;5108363;28;20023;-59
2022/12/20 07:03:50;;;;;;;22.40;12.52;;;5.30;99.10;;;;;;5108324;28;20019;-59
2022/12/20 07:06:16;;;;;;;19.95;12.52;;;5.20;99.10;;;;;;5108421;28;20056;-59
2022/12/20 07:08:41;;;;;;;21.42;12.73;;;5.30;99.10;;;;;;5108537;28;20028;-59
2022/12/20 07:11:07;;;;;;;19.60;12.63;;;5.20;99.10;;;;;;5108552;28;20059;-59
2022/12/20 07:13:33;;;;;;;22.15;13.23;;;5.20;99.20;;;;;;5108045;28;20027;-59
2022/12/20 07:16:00;;;;;;;17.27;12.30;;;5.20;99.20;;;;;;5107027;28;20030;-58
2022/12/20 07:18:25;;;;;;;19.67;12.05;;;5.20;99.20;;;;;;5090637;28;20027;-59
2022/12/20 07:20:51;;;;;;;22.35;12.68;;;5.20;99.20;;;;;;5124898;28;20122;-59
2022/12/20 07:23:17;;;;;;;21.38;13.35;;;5.20;99.20;;;;;;5099621;28;20069;-59
2022/12/20 07:25:43;;;;;;;17.92;12.38;;;5.20;99.20;;;;;;5107941;28;20023;-59
2022/12/20 07:28:08;;;;;;;18.88;12.95;;;5.20;99.20;;;;;;5106385;28;20114;-59
2022/12/20 07:30:34;;;;;;;20.45;12.82;;;5.20;99.20;;;;;;5125834;28;20059;-59
2022/12/20 07:32:59;;;;;;;19.67;12.77;;;5.20;99.30;;;;;;5090854;28;20026;-59
2022/12/20 07:35:25;;;;;;;18.75;12.77;;;5.20;99.20;;;;;;5107341;28;20073;-59
2022/12/20 07:37:51;;;;;;;18.95;12.40;;;5.20;99.20;;;;;;5107885;28;20036;-59
2022/12/20 07:40:16;;;;;;;21.30;12.52;;;5.10;99.20;;;;;;5117843;28;20020;-59
2022/12/20 07:42:42;;;;;;;18.80;11.60;;;5.20;99.20;;;;;;5107694;28;20032;-59
2022/12/20 07:45:08;;;;;;;22.52;12.93;;;5.20;99.20;;;;;;5101603;28;20058;-59
2022/12/20 07:47:34;;;;;;;23.48;12.88;;;5.10;99.20;;;;;;5111220;28;20043;-59
2022/12/20 07:50:01;;;;;;;22.30;13.02;;;5.20;99.20;;;;;;5123996;28;20050;-59
2022/12/20 07:52:27;;;;;;;19.00;12.90;;;5.20;99.20;;;;;;5107196;28;20032;-59
2022/12/20 07:54:57;;;;;;;21.30;12.35;;;5.20;99.30;;;;;;5107549;28;20128;-59
2022/12/20 07:57:26;;;;;;;16.15;11.68;;;5.20;99.20;;;;;;5107950;28;20480;-59
2022/12/20 07:59:53;;;;;;;58.33;16.20;;;5.20;99.20;;;;;;5108351;28;20079;-60
2022/12/20 08:02:22;;;;;;;24.95;12.68;;;5.20;99.20;;;;;;5107380;28;20032;-57
2022/12/20 08:04:47;;;;;;;28.67;13.52;;;5.20;99.30;;;;;;5125509;28;20515;-59
2022/12/20 08:07:13;;;;;;;21.00;12.70;;;5.20;99.30;;;;;;5107250;28;20035;-59
2022/12/20 08:09:40;;;;;;;28.60;13.52;;;5.20;99.40;;;;;;5107266;28;20041;-59
2022/12/20 08:12:06;;;;;;;25.98;13.35;;;5.20;99.30;;;;;;5107092;28;20041;-59
2022/12/20 08:14:32;;;;;;;20.45;12.88;;;5.20;99.30;;;;;;5107182;28;20035;-59
2022/12/20 08:16:58;;;;;;;22.15;11.73;;;5.20;99.20;;;;;;5107176;28;20051;-59
2022/12/20 08:19:23;;;;;;;30.02;13.07;;;5.30;99.10;;;;;;5107179;28;20024;-59
2022/12/20 08:21:49;;;;;;;28.77;12.63;;;5.30;99.10;;;;;;5125533;28;20024;-59
2022/12/20 08:24:14;;;;;;;24.05;12.15;;;5.30;99.10;;;;;;5125245;28;20066;-59
2022/12/20 08:26:40;;;;;;;26.42;13.43;;;5.30;99.10;;;;;;5106760;28;20031;-59
2022/12/20 08:29:06;;;;;;;26.73;14.02;;;5.30;99.00;;;;;;5107035;28;20024;-59
2022/12/20 08:31:31;;;;;;;29.00;12.20;;;5.40;99.10;;;;;;5125107;28;20043;-59
2022/12/20 08:33:57;;;;;;;36.60;14.55;;;5.30;99.00;;;;;;5106723;28;20092;-59
2022/12/20 08:36:22;;;;;;;25.00;13.15;;;5.40;99.00;;;;;;5106770;28;20035;-59
2022/12/20 08:38:48;;;;;;;29.05;13.30;;;5.40;99.00;;;;;;5125299;28;20035;-59
2022/12/20 08:41:14;;;;;;;24.00;13.70;;;5.40;99.00;;;;;;5106731;28;20031;-59
2022/12/20 08:43:40;;;;;;;23.17;12.77;;;5.40;98.90;;;;;;5089648;28;20027;-60
2022/12/20 08:46:06;;;;;;;21.33;13.48;;;5.30;98.90;;;;;;5106739;28;20036;-59
2022/12/20 08:48:32;;;;;;;36.45;14.15;;;5.40;98.90;;;;;;5107502;28;20024;-60
2022/12/20 08:51:05;;;;;;;45.10;14.73;;;5.40;98.90;;;;;;5110970;28;20034;-59
2022/12/20 08:53:31;;;;;;;34.63;14.45;;;5.40;98.90;;;;;;5111216;28;20038;-60
2022/12/20 08:56:08;;;;;;;29.80;13.50;;;5.40;98.90;;;;;;5110885;28;20024;-59
2022/12/20 08:58:34;;;;;;;129.43;22.17;;;5.40;98.90;;;;;;5111403;28;20149;-59
2022/12/20 09:01:00;;;;;;;92.10;19.20;;;5.40;98.90;;;;;;5112052;28;20417;-60
2022/12/20 09:03:30;;;;;;;266.92;34.33;;;5.50;99.00;;;;;;5111288;28;20020;-60
2022/12/20 09:05:56;;;;;;;98.30;19.38;;;5.50;99.10;;;;;;5129421;28;20131;-59
2022/12/20 09:08:21;;;;;;;55.63;17.02;;;5.50;99.30;;;;;;5110046;28;20433;-59
2022/12/20 09:10:47;;;;;;;112.22;21.65;;;5.50;99.30;;;;;;5110184;28;20035;-60
2022/12/20 09:13:12;;;;;;;97.05;17.45;;;5.50;99.20;;;;;;5110182;28;20047;-60
2022/12/20 09:15:38;;;;;;;327.23;43.15;;;5.50;99.20;;;;;;5110001;28;20038;-60
2022/12/20 09:18:04;;;;;;;96.57;18.88;;;5.50;99.20;;;;;;5110324;28;20070;-60
2022/12/20 09:20:30;;;;;;;82.07;18.90;;;5.60;99.30;;;;;;5110199;28;20477;-60
2022/12/20 09:22:56;;;;;;;155.77;25.33;;;5.60;99.20;;;;;;5128642;28;20110;-60
2022/12/20 09:25:22;;;;;;;95.75;19.58;;;5.60;99.20;;;;;;5110021;28;20169;-60
2022/12/20 09:27:47;;;;;;;94.00;17.88;;;5.60;99.50;;;;;;5110027;28;20455;-60
2022/12/20 09:30:13;;;;;;;68.07;16.33;;;5.60;99.20;;;;;;5110047;28;20084;-60
2022/12/20 09:32:39;;;;;;;64.68;16.80;;;5.60;99.20;;;;;;5109832;28;20028;-60
2022/12/20 09:35:04;;;;;;;97.22;19.48;;;5.60;99.30;;;;;;5110017;28;20050;-60
2022/12/20 09:37:31;;;;;;;143.38;26.88;;;5.70;99.30;;;;;;5109941;28;20046;-60
2022/12/20 09:39:56;;;;;;;91.22;18.98;;;5.70;99.40;;;;;;5092793;28;20019;-61
2022/12/20 09:42:24;;;;;;;75.63;18.25;;;5.70;99.40;;;;;;5092496;28;20046;-60
2022/12/20 09:44:50;;;;;;;74.22;17.45;;;5.70;99.40;;;;;;5109679;28;20036;-60
2022/12/20 09:47:21;;;;;;;135.30;22.75;;;5.70;99.50;;;;;;5109807;28;20047;-60
2022/12/20 09:49:49;;;;;;;92.75;18.20;;;5.70;99.40;;;;;;5110329;28;20043;-61
2022/12/20 09:52:48;;;;;;;75.97;17.52;;;5.70;99.40;;;;;;5109088;28;20040;-61
2022/12/20 09:55:17;;;;;;;70.82;17.38;;;5.70;99.40;;;;;;5127525;28;20036;-60
2022/12/20 09:58:10;;;;;;;89.30;18.25;;;5.80;99.30;;;;;;5109629;28;20027;-60
2022/12/20 10:00:42;;;;;;;120.10;20.08;;;5.80;99.40;;;;;;5127067;28;20043;-61
2022/12/20 10:03:18;;;;;;;76.72;17.42;;;5.80;99.20;;;;;;5109470;28;20027;-60
2022/12/20 10:06:00;;;;;;;57.80;16.45;;;5.80;99.10;;;;;;5109191;28;20061;-61
2022/12/20 10:08:55;;;;;;;68.72;16.35;;;5.80;99.10;;;;;;5109180;28;20053;-60
2022/12/20 10:11:33;;;;;;;59.38;17.08;;;5.90;99.10;;;;;;5109440;28;20040;-60
2022/12/20 10:14:34;;;;;;;63.78;16.10;;;5.90;99.20;;;;;;5127429;28;20041;-60
2022/12/20 10:17:41;;;;;;;59.88;16.23;;;5.90;99.20;;;;;;5111844;28;20073;-61
2022/12/20 10:20:10;;;;;;;71.70;17.30;;;5.90;99.20;;;;;;5109236;28;20024;-60
2022/12/20 10:22:50;;;;;;;70.22;16.52;;;6.00;99.20;;;;;;5127579;28;20059;-61
2022/12/20 10:25:23;;;;;;;74.13;18.33;;;6.00;99.30;;;;;;5109379;28;20034;-61
2022/12/20 10:27:50;;;;;;;66.93;16.27;;;6.00;99.30;;;;;;5109681;28;20039;-61
2022/12/20 10:30:21;;;;;;;66.25;16.15;;;6.00;99.40;;;;;;5109183;28;20027;-60
2022/12/20 10:32:48;;;;;;;54.33;16.02;;;6.00;99.30;;;;;;5109168;28;20026;-60
2022/12/20 10:35:13;;;;;;;71.45;16.85;;;6.00;99.30;;;;;;5109266;28;20035;-59
2022/12/20 10:38:00;;;;;;;61.08;15.85;;;6.10;99.30;;;;;;5127105;28;20068;-61
2022/12/20 10:40:31;;;;;;;79.63;17.35;;;6.10;99.50;;;;;;5087732;28;20032;-60
2022/12/20 10:42:57;;;;;;;80.43;16.98;;;6.10;99.30;;;;;;5110011;28;20054;-60
2022/12/20 10:45:23;;;;;;;71.20;19.23;;;6.10;99.30;;;;;;5108507;28;20038;-60
2022/12/20 10:47:49;;;;;;;67.60;16.13;;;6.10;99.50;;;;;;5127070;28;20020;-60
2022/12/20 10:50:17;;;;;;;62.72;17.15;;;6.20;99.50;;;;;;5108244;28;20053;-60
2022/12/20 10:52:43;;;;;;;54.03;16.33;;;6.20;99.50;;;;;;5090684;28;20091;-60
2022/12/20 10:55:33;;;;;;;79.78;17.80;;;6.20;99.60;;;;;;5107969;28;20076;-60
2022/12/20 10:58:04;;;;;;;81.53;18.65;;;6.30;99.60;;;;;;5118706;28;20065;-60
2022/12/20 11:00:31;;;;;;;73.45;17.73;;;6.30;99.60;;;;;;5108198;28;20034;-60
2022/12/20 11:03:23;;;;;;;78.97;19.00;;;6.30;99.60;;;;;;5108159;28;20042;-60
2022/12/20 11:05:57;;;;;;;171.60;24.27;;;6.40;99.70;;;;;;5104809;28;20082;-60
2022/12/20 11:08:23;;;;;;;90.93;18.92;;;6.40;99.90;;;;;;5126255;28;20031;-60
2022/12/20 11:10:49;;;;;;;87.32;18.25;;;6.40;99.90;;;;;;5125903;28;20034;-60
2022/12/20 11:13:20;;;;;;;114.05;20.65;;;6.50;99.90;;;;;;5106555;28;20424;-61
2022/12/20 11:15:50;;;;;;;96.55;20.25;;;6.50;99.90;;;;;;5107507;28;20137;-60
2022/12/20 11:18:28;;;;;;;99.47;19.65;;;6.50;99.90;;;;;;5107606;28;20031;-60
2022/12/20 11:20:56;;;;;;;251.05;34.42;;;6.50;99.90;;;;;;5107910;28;20043;-60
2022/12/20 11:23:34;;;;;;;183.35;29.33;;;6.60;99.90;;;;;;5125835;28;20072;-59
2022/12/20 11:26:26;;;;;;;123.45;22.80;;;6.60;99.90;;;;;;5107442;28;20040;-60
2022/12/20 11:28:56;;;;;;;145.40;23.52;;;6.60;99.90;;;;;;5108777;28;20028;-60
2022/12/20 11:31:43;;;;;;;169.95;26.88;;;6.70;99.90;;;;;;5107408;28;20118;-60
2022/12/20 11:34:34;;;;;;;186.32;31.13;;;6.70;99.90;;;;;;5106124;28;20114;-60
2022/12/20 11:37:19;;;;;;;156.15;25.27;;;6.80;99.90;;;;;;5125669;28;20047;-60
2022/12/20 11:39:59;;;;;;;134.93;24.98;;;6.80;99.90;;;;;;5089867;28;20023;-60
2022/12/20 11:42:55;;;;;;;146.73;26.27;;;6.80;99.90;;;;;;5125601;28;20126;-58
2022/12/20 11:45:32;;;;;;;;;;;6.80;99.90;;;;;;5135105;27;20389;-60
2022/12/20 11:48:17;;;;;;;137.10;25.27;;;6.90;99.90;;;;;;5100338;28;19944;-60
2022/12/20 11:51:14;;;;;;;134.82;24.30;;;6.90;99.90;;;;;;5117406;28;20031;-60
2022/12/20 11:53:45;;;;;;;129.82;22.50;;;6.90;99.90;;;;;;5102031;28;20051;-60
2022/12/20 11:56:13;;;;;;;145.10;23.67;;;7.00;99.90;;;;;;5117315;28;20066;-60
2022/12/20 11:58:45;;;;;;;98.45;23.48;;;7.00;99.90;;;;;;5117286;28;20558;-60
2022/12/20 12:01:19;;;;;;;132.25;24.58;;;7.00;99.90;;;;;;5100189;28;20029;-60
2022/12/20 12:04:07;;;;;;;107.78;21.77;;;7.00;99.90;;;;;;5100371;28;20038;-60
2022/12/20 12:06:45;;;;;;;103.55;22.65;;;7.00;99.90;;;;;;5117260;28;20051;-60
2022/12/20 12:09:13;;;;;;;117.30;23.73;;;7.00;99.90;;;;;;5083588;28;20028;-60
2022/12/20 12:11:48;;;;;;;102.75;21.73;;;7.00;99.90;;;;;;5117407;28;20028;-60
2022/12/20 12:14:19;;;;;;;124.10;22.50;;;7.10;99.90;;;;;;5100234;28;20058;-60
2022/12/20 12:16:46;;;;;;;93.85;22.75;;;7.10;99.90;;;;;;5100349;28;20182;-60
2022/12/20 12:19:12;;;;;;;103.65;21.52;;;7.10;99.90;;;;;;5100415;28;20155;-60
2022/12/20 12:21:43;;;;;;;99.88;22.45;;;7.10;99.90;;;;;;5117552;28;20021;-60
2022/12/20 12:24:31;;;;;;;104.22;22.75;;;7.10;99.90;;;;;;5099951;28;20100;-59
2022/12/20 12:27:00;;;;;;;111.15;24.33;;;7.20;99.90;;;;;;5100116;28;20020;-60
2022/12/20 12:29:25;;;;;;;106.15;23.20;;;7.10;99.90;;;;;;5100058;28;20052;-60
2022/12/20 12:32:09;;;;;;;141.75;28.92;;;7.20;99.90;;;;;;5100216;28;20031;-58
2022/12/20 12:35:02;;;;;;;124.88;26.30;;;7.20;99.90;;;;;;5083215;28;20038;-59
2022/12/20 12:37:49;;;;;;;120.28;26.17;;;7.20;99.90;;;;;;5097140;28;20024;-60
2022/12/20 12:40:53;;;;;;;143.70;28.55;;;7.20;99.90;;;;;;5079232;28;20428;-59
2022/12/20 12:43:18;;;;;;;134.30;25.63;;;7.20;99.90;;;;;;5082148;28;20029;-59
2022/12/20 12:45:54;;;;;;;125.45;25.30;;;7.20;99.90;;;;;;5080494;28;20028;-59
2022/12/20 12:48:34;;;;;;;113.35;25.20;;;7.20;99.90;;;;;;5076348;28;20116;-59
2022/12/20 12:51:01;;;;;;;117.47;25.23;;;7.20;99.90;;;;;;5092232;28;20024;-59
2022/12/20 12:53:48;;;;;;;113.93;24.25;;;7.30;99.90;;;;;;5075710;28;20047;-59